sensor_id;sensor_type;location;lat;lon;timestamp;pressure;altitude;pressure_sealevel;temperature;humidity
54465;BME280;40374;49.480;20.016;2023-04-28T00:00:05;95385.94;;;-0.21;100.00
54465;BME280;40374;49.480;20.016;2023-04-28T00:02:54;95400.56;;;-0.05;100.00
54465;BME280;40374;49.480;20.016;2023-04-28T00:05:21;95391.66;;;-0.04;100.00
54465;BME280;40374;49.480;20.016;2023-04-28T00:07:51;95381.47;;;-0.07;100.00
54465;BME280;40374;49.480;20.016;2023-04-28T00:10:19;95400.19;;;0.12;100.00
54465;BME280;40374;49.480;20.016;2023-04-28T00:12:46;95399.78;;;0.15;100.00
54465;BME280;40374;49.480;20.016;2023-04-28T00:15:13;95398.75;;;0.16;100.00
54465;BME280;40374;49.480;20.016;2023-04-28T00:17:41;95396.13;;;0.16;100.00
54465;BME280;40374;49.480;20.016;2023-04-28T00:20:10;95407.09;;;0.06;100.00
54465;BME280;40374;49.480;20.016;2023-04-28T00:22:37;95393.25;;;-0.03;100.00
54465;BME280;40374;49.480;20.016;2023-04-28T00:25:05;95398.53;;;0.04;100.00
54465;BME280;40374;49.480;20.016;2023-04-28T00:27:33;95399.56;;;-0.04;100.00
54465;BME280;40374;49.480;20.016;2023-04-28T00:30:01;95405.88;;;-0.11;100.00
54465;BME280;40374;49.480;20.016;2023-04-28T00:32:31;95400.56;;;-0.25;100.00
54465;BME280;40374;49.480;20.016;2023-04-28T00:34:58;95397.50;;;-0.22;100.00
54465;BME280;40374;49.480;20.016;2023-04-28T00:37:26;95404.44;;;-0.21;100.00
54465;BME280;40374;49.480;20.016;2023-04-28T00:39:54;95395.91;;;-0.16;100.00
54465;BME280;40374;49.480;20.016;2023-04-28T00:42:22;95398.13;;;-0.13;100.00
54465;BME280;40374;49.480;20.016;2023-04-28T00:44:50;95400.38;;;-0.03;100.00
54465;BME280;40374;49.480;20.016;2023-04-28T00:47:17;95385.72;;;-0.19;100.00
54465;BME280;40374;49.480;20.016;2023-04-28T00:49:47;95389.81;;;-0.10;100.00
54465;BME280;40374;49.480;20.016;2023-04-28T00:52:15;95390.38;;;-0.21;100.00
54465;BME280;40374;49.480;20.016;2023-04-28T00:54:43;95374.72;;;-0.43;100.00
54465;BME280;40374;49.480;20.016;2023-04-28T00:57:11;95382.25;;;-0.39;100.00
54465;BME280;40374;49.480;20.016;2023-04-28T00:59:38;95396.88;;;-0.50;100.00
54465;BME280;40374;49.480;20.016;2023-04-28T01:02:05;95396.06;;;-0.44;100.00
54465;BME280;40374;49.480;20.016;2023-04-28T01:04:34;95383.25;;;-0.47;100.00
54465;BME280;40374;49.480;20.016;2023-04-28T01:07:02;95398.50;;;-0.43;100.00
54465;BME280;40374;49.480;20.016;2023-04-28T01:09:30;95391.59;;;-0.44;100.00
54465;BME280;40374;49.480;20.016;2023-04-28T01:11:58;95390.38;;;-0.48;100.00
54465;BME280;40374;49.480;20.016;2023-04-28T01:14:41;95391.78;;;-0.45;100.00
54465;BME280;40374;49.480;20.016;2023-04-28T01:17:09;95376.72;;;-0.58;100.00
54465;BME280;40374;49.480;20.016;2023-04-28T01:19:36;95388.69;;;-0.62;100.00
54465;BME280;40374;49.480;20.016;2023-04-28T01:22:04;95383.81;;;-0.65;100.00
54465;BME280;40374;49.480;20.016;2023-04-28T01:24:31;95389.09;;;-0.65;100.00
54465;BME280;40374;49.480;20.016;2023-04-28T01:27:03;95393.97;;;-0.62;100.00
54465;BME280;40374;49.480;20.016;2023-04-28T01:29:30;95398.06;;;-0.53;100.00
54465;BME280;40374;49.480;20.016;2023-04-28T01:31:58;95392.34;;;-0.63;100.00
54465;BME280;40374;49.480;20.016;2023-04-28T01:34:25;95387.66;;;-0.74;100.00
54465;BME280;40374;49.480;20.016;2023-04-28T01:36:53;95391.94;;;-0.73;100.00
54465;BME280;40374;49.480;20.016;2023-04-28T01:39:20;95382.53;;;-0.83;100.00
54465;BME280;40374;49.480;20.016;2023-04-28T01:41:48;95401.69;;;-0.67;100.00
54465;BME280;40374;49.480;20.016;2023-04-28T01:44:15;95394.75;;;-0.82;100.00
54465;BME280;40374;49.480;20.016;2023-04-28T01:46:43;95399.63;;;-0.78;100.00
54465;BME280;40374;49.480;20.016;2023-04-28T01:49:10;95404.31;;;-0.74;100.00
54465;BME280;40374;49.480;20.016;2023-04-28T01:51:37;95397.22;;;-0.73;100.00
54465;BME280;40374;49.480;20.016;2023-04-28T01:54:07;95398.19;;;-0.88;100.00
54465;BME280;40374;49.480;20.016;2023-04-28T01:56:34;95404.84;;;-0.92;100.00
54465;BME280;40374;49.480;20.016;2023-04-28T01:59:02;95404.06;;;-0.92;100.00
54465;BME280;40374;49.480;20.016;2023-04-28T02:01:33;95402.41;;;-0.93;100.00
54465;BME280;40374;49.480;20.016;2023-04-28T02:04:01;95397.72;;;-0.98;100.00
54465;BME280;40374;49.480;20.016;2023-04-28T02:06:31;95418.66;;;-0.96;100.00
54465;BME280;40374;49.480;20.016;2023-04-28T02:08:59;95419.47;;;-0.96;100.00
54465;BME280;40374;49.480;20.016;2023-04-28T02:11:27;95423.72;;;-0.95;100.00
54465;BME280;40374;49.480;20.016;2023-04-28T02:13:56;95411.28;;;-1.08;100.00
54465;BME280;40374;49.480;20.016;2023-04-28T02:16:25;95421.25;;;-1.03;100.00
54465;BME280;40374;49.480;20.016;2023-04-28T02:18:53;95423.88;;;-1.03;100.00
54465;BME280;40374;49.480;20.016;2023-04-28T02:21:20;95422.84;;;-1.09;100.00
54465;BME280;40374;49.480;20.016;2023-04-28T02:23:48;95421.81;;;-1.14;100.00
54465;BME280;40374;49.480;20.016;2023-04-28T02:26:16;95425.84;;;-1.18;100.00
54465;BME280;40374;49.480;20.016;2023-04-28T02:28:43;95416.53;;;-1.14;100.00
54465;BME280;40374;49.480;20.016;2023-04-28T02:31:11;95424.84;;;-1.17;100.00
54465;BME280;40374;49.480;20.016;2023-04-28T02:33:41;95428.03;;;-1.22;100.00
54465;BME280;40374;49.480;20.016;2023-04-28T02:36:09;95430.63;;;-1.35;100.00
54465;BME280;40374;49.480;20.016;2023-04-28T02:38:38;95432.66;;;-1.31;100.00
54465;BME280;40374;49.480;20.016;2023-04-28T02:41:10;95437.44;;;-1.48;100.00
54465;BME280;40374;49.480;20.016;2023-04-28T02:43:38;95450.00;;;-1.50;100.00
54465;BME280;40374;49.480;20.016;2023-04-28T02:46:05;95436.53;;;-1.61;100.00
54465;BME280;40374;49.480;20.016;2023-04-28T02:48:33;95424.34;;;-1.63;100.00
54465;BME280;40374;49.480;20.016;2023-04-28T02:51:02;95445.50;;;-1.56;100.00
54465;BME280;40374;49.480;20.016;2023-04-28T02:53:31;95450.63;;;-1.48;100.00
54465;BME280;40374;49.480;20.016;2023-04-28T02:55:58;95446.16;;;-1.47;100.00
54465;BME280;40374;49.480;20.016;2023-04-28T02:58:28;95436.59;;;-1.55;100.00
54465;BME280;40374;49.480;20.016;2023-04-28T03:00:56;95428.00;;;-1.64;100.00
54465;BME280;40374;49.480;20.016;2023-04-28T03:03:23;95439.19;;;-1.61;100.00
54465;BME280;40374;49.480;20.016;2023-04-28T03:05:51;95437.53;;;-1.63;100.00
54465;BME280;40374;49.480;20.016;2023-04-28T03:08:18;95435.47;;;-1.67;100.00
54465;BME280;40374;49.480;20.016;2023-04-28T03:10:47;95439.19;;;-1.61;100.00
54465;BME280;40374;49.480;20.016;2023-04-28T03:13:14;95437.69;;;-1.71;100.00
54465;BME280;40374;49.480;20.016;2023-04-28T03:15:42;95430.25;;;-1.60;100.00
54465;BME280;40374;49.480;20.016;2023-04-28T03:18:11;95437.25;;;-1.46;100.00
54465;BME280;40374;49.480;20.016;2023-04-28T03:20:39;95429.09;;;-1.79;100.00
54465;BME280;40374;49.480;20.016;2023-04-28T03:23:07;95436.69;;;-1.91;100.00
54465;BME280;40374;49.480;20.016;2023-04-28T03:25:35;95429.00;;;-1.93;100.00
54465;BME280;40374;49.480;20.016;2023-04-28T03:28:02;95435.84;;;-1.98;100.00
54465;BME280;40374;49.480;20.016;2023-04-28T03:30:30;95425.44;;;-2.07;100.00
54465;BME280;40374;49.480;20.016;2023-04-28T03:32:58;95433.72;;;-2.10;100.00
54465;BME280;40374;49.480;20.016;2023-04-28T03:35:25;95429.25;;;-2.09;100.00
54465;BME280;40374;49.480;20.016;2023-04-28T03:37:53;95426.81;;;-2.11;100.00
54465;BME280;40374;49.480;20.016;2023-04-28T03:40:24;95435.66;;;-2.18;100.00
54465;BME280;40374;49.480;20.016;2023-04-28T03:43:11;95436.06;;;-1.93;100.00
54465;BME280;40374;49.480;20.016;2023-04-28T03:45:46;95430.44;;;-1.90;100.00
54465;BME280;40374;49.480;20.016;2023-04-28T03:48:13;95436.69;;;-1.70;100.00
54465;BME280;40374;49.480;20.016;2023-04-28T03:50:41;95439.69;;;-1.73;100.00
54465;BME280;40374;49.480;20.016;2023-04-28T03:53:10;95446.22;;;-1.69;100.00
54465;BME280;40374;49.480;20.016;2023-04-28T03:55:38;95443.13;;;-1.72;100.00
54465;BME280;40374;49.480;20.016;2023-04-28T03:58:05;95440.19;;;-1.63;100.00
54465;BME280;40374;49.480;20.016;2023-04-28T04:00:33;95443.38;;;-1.67;100.00
54465;BME280;40374;49.480;20.016;2023-04-28T04:03:01;95441.44;;;-1.58;100.00
54465;BME280;40374;49.480;20.016;2023-04-28T04:05:30;95437.06;;;-1.45;100.00
54465;BME280;40374;49.480;20.016;2023-04-28T04:07:57;95441.44;;;-1.58;100.00
54465;BME280;40374;49.480;20.016;2023-04-28T04:10:26;95436.59;;;-1.55;100.00
54465;BME280;40374;49.480;20.016;2023-04-28T04:12:53;95445.09;;;-1.59;100.00
54465;BME280;40374;49.480;20.016;2023-04-28T04:15:21;95442.19;;;-1.65;100.00
54465;BME280;40374;49.480;20.016;2023-04-28T04:17:48;95446.50;;;-1.57;100.00
54465;BME280;40374;49.480;20.016;2023-04-28T04:20:16;95441.69;;;-1.53;100.00
54465;BME280;40374;49.480;20.016;2023-04-28T04:22:44;95430.91;;;-1.52;100.00
54465;BME280;40374;49.480;20.016;2023-04-28T04:25:13;95426.44;;;-1.51;100.00
54465;BME280;40374;49.480;20.016;2023-04-28T04:27:42;95440.72;;;-1.39;100.00
54465;BME280;40374;49.480;20.016;2023-04-28T04:30:10;95432.63;;;-1.37;100.00
54465;BME280;40374;49.480;20.016;2023-04-28T04:32:37;95437.75;;;-1.29;100.00
54465;BME280;40374;49.480;20.016;2023-04-28T04:35:06;95431.75;;;-1.16;100.00
54465;BME280;40374;49.480;20.016;2023-04-28T04:37:34;95422.81;;;-1.15;100.00
54465;BME280;40374;49.480;20.016;2023-04-28T04:40:05;95428.81;;;-0.93;100.00
54465;BME280;40374;49.480;20.016;2023-04-28T04:42:39;95425.38;;;-0.94;100.00
54465;BME280;40374;49.480;20.016;2023-04-28T04:45:11;95421.19;;;-0.68;100.00
54465;BME280;40374;49.480;20.016;2023-04-28T04:47:39;95418.91;;;-0.78;100.00
54465;BME280;40374;49.480;20.016;2023-04-28T04:50:08;95407.19;;;-0.62;100.00
54465;BME280;40374;49.480;20.016;2023-04-28T04:52:35;95417.22;;;-0.37;100.00
54465;BME280;40374;49.480;20.016;2023-04-28T04:55:04;95407.00;;;-0.54;100.00
54465;BME280;40374;49.480;20.016;2023-04-28T04:57:32;95412.50;;;-0.49;100.00
54465;BME280;40374;49.480;20.016;2023-04-28T05:00:05;95418.03;;;-0.30;100.00
54465;BME280;40374;49.480;20.016;2023-04-28T05:02:33;95421.75;;;0.09;100.00
54465;BME280;40374;49.480;20.016;2023-04-28T05:05:03;95411.78;;;0.24;100.00
54465;BME280;40374;49.480;20.016;2023-04-28T05:07:51;95412.38;;;0.39;100.00
54465;BME280;40374;49.480;20.016;2023-04-28T05:10:21;95409.94;;;0.45;100.00
54465;BME280;40374;49.480;20.016;2023-04-28T05:12:48;95412.56;;;0.58;100.00
54465;BME280;40374;49.480;20.016;2023-04-28T05:15:17;95414.56;;;0.69;100.00
54465;BME280;40374;49.480;20.016;2023-04-28T05:18:02;95399.53;;;0.70;100.00
54465;BME280;40374;49.480;20.016;2023-04-28T05:20:36;95415.78;;;0.87;100.00
54465;BME280;40374;49.480;20.016;2023-04-28T05:23:04;95407.75;;;1.07;100.00
54465;BME280;40374;49.480;20.016;2023-04-28T05:25:33;95415.81;;;1.32;100.00
54465;BME280;40374;49.480;20.016;2023-04-28T05:28:00;95416.97;;;1.49;100.00
54465;BME280;40374;49.480;20.016;2023-04-28T05:30:33;95414.41;;;1.68;100.00
54465;BME280;40374;49.480;20.016;2023-04-28T05:33:01;95409.66;;;1.76;100.00
54465;BME280;40374;49.480;20.016;2023-04-28T05:35:29;95413.06;;;1.90;100.00
54465;BME280;40374;49.480;20.016;2023-04-28T05:37:57;95411.75;;;1.99;100.00
54465;BME280;40374;49.480;20.016;2023-04-28T05:40:25;95416.31;;;1.92;100.00
54465;BME280;40374;49.480;20.016;2023-04-28T05:42:54;95416.19;;;2.12;100.00
54465;BME280;40374;49.480;20.016;2023-04-28T05:45:23;95407.50;;;2.23;100.00
54465;BME280;40374;49.480;20.016;2023-04-28T05:47:54;95418.94;;;2.49;100.00
54465;BME280;40374;49.480;20.016;2023-04-28T05:50:22;95415.28;;;2.69;100.00
54465;BME280;40374;49.480;20.016;2023-04-28T05:52:50;95417.16;;;2.87;100.00
54465;BME280;40374;49.480;20.016;2023-04-28T05:55:17;95409.03;;;3.00;100.00
54465;BME280;40374;49.480;20.016;2023-04-28T05:57:44;95419.53;;;3.32;100.00
54465;BME280;40374;49.480;20.016;2023-04-28T06:00:20;95414.06;;;3.45;100.00
54465;BME280;40374;49.480;20.016;2023-04-28T06:02:50;95417.75;;;3.44;100.00
54465;BME280;40374;49.480;20.016;2023-04-28T06:05:19;95415.06;;;3.62;100.00
54465;BME280;40374;49.480;20.016;2023-04-28T06:07:49;95412.47;;;3.74;100.00
54465;BME280;40374;49.480;20.016;2023-04-28T06:10:20;95419.81;;;4.02;100.00
54465;BME280;40374;49.480;20.016;2023-04-28T06:12:48;95420.69;;;4.15;100.00
54465;BME280;40374;49.480;20.016;2023-04-28T06:15:15;95424.28;;;4.32;100.00
54465;BME280;40374;49.480;20.016;2023-04-28T06:17:43;95420.78;;;4.20;100.00
54465;BME280;40374;49.480;20.016;2023-04-28T06:20:11;95424.75;;;4.29;100.00
54465;BME280;40374;49.480;20.016;2023-04-28T06:22:40;95415.41;;;4.50;100.00
54465;BME280;40374;49.480;20.016;2023-04-28T06:25:08;95410.34;;;4.60;100.00
54465;BME280;40374;49.480;20.016;2023-04-28T06:27:43;95412.19;;;4.83;100.00
54465;BME280;40374;49.480;20.016;2023-04-28T06:30:17;95409.38;;;5.14;100.00
54465;BME280;40374;49.480;20.016;2023-04-28T06:32:48;95402.75;;;5.28;100.00
54465;BME280;40374;49.480;20.016;2023-04-28T06:35:17;95409.22;;;5.32;100.00
54465;BME280;40374;49.480;20.016;2023-04-28T06:37:44;95406.91;;;5.36;100.00
54465;BME280;40374;49.480;20.016;2023-04-28T06:40:11;95412.44;;;5.46;100.00
54465;BME280;40374;49.480;20.016;2023-04-28T06:42:44;95397.44;;;5.57;100.00
54465;BME280;40374;49.480;20.016;2023-04-28T06:45:18;95404.56;;;5.80;100.00
54465;BME280;40374;49.480;20.016;2023-04-28T06:47:45;95409.91;;;6.08;100.00
54465;BME280;40374;49.480;20.016;2023-04-28T06:50:13;95402.66;;;6.38;100.00
54465;BME280;40374;49.480;20.016;2023-04-28T06:52:40;95399.25;;;6.59;100.00
54465;BME280;40374;49.480;20.016;2023-04-28T06:55:08;95393.34;;;6.74;100.00
54465;BME280;40374;49.480;20.016;2023-04-28T06:57:37;95393.63;;;6.95;100.00
54465;BME280;40374;49.480;20.016;2023-04-28T07:00:05;95392.03;;;7.16;100.00
54465;BME280;40374;49.480;20.016;2023-04-28T07:02:32;95378.00;;;7.25;100.00
54465;BME280;40374;49.480;20.016;2023-04-28T07:05:00;95387.69;;;7.53;100.00
54465;BME280;40374;49.480;20.016;2023-04-28T07:07:28;95391.91;;;7.71;100.00
54465;BME280;40374;49.480;20.016;2023-04-28T07:09:56;95384.88;;;7.87;98.21
54465;BME280;40374;49.480;20.016;2023-04-28T07:12:23;95385.41;;;7.89;100.00
54465;BME280;40374;49.480;20.016;2023-04-28T07:14:51;95375.00;;;7.93;100.00
54465;BME280;40374;49.480;20.016;2023-04-28T07:17:18;95376.31;;;8.18;100.00
54465;BME280;40374;49.480;20.016;2023-04-28T07:19:46;95385.97;;;8.19;87.78
54465;BME280;40374;49.480;20.016;2023-04-28T07:22:16;95359.63;;;8.10;82.41
54465;BME280;40374;49.480;20.016;2023-04-28T07:24:44;95363.94;;;8.11;91.72
54465;BME280;40374;49.480;20.016;2023-04-28T07:27:11;95360.34;;;8.33;86.25
54465;BME280;40374;49.480;20.016;2023-04-28T07:29:39;95360.59;;;8.31;80.06
54465;BME280;40374;49.480;20.016;2023-04-28T07:32:06;95359.47;;;8.54;85.88
54465;BME280;40374;49.480;20.016;2023-04-28T07:34:37;95358.13;;;8.89;85.10
54465;BME280;40374;49.480;20.016;2023-04-28T07:37:04;95354.53;;;9.21;79.70
54465;BME280;40374;49.480;20.016;2023-04-28T07:39:33;95349.81;;;9.49;67.95
54465;BME280;40374;49.480;20.016;2023-04-28T07:42:01;95350.47;;;9.77;65.23
54465;BME280;40374;49.480;20.016;2023-04-28T07:44:32;95353.47;;;10.06;61.69
54465;BME280;40374;49.480;20.016;2023-04-28T07:47:00;95346.78;;;10.39;59.93
54465;BME280;40374;49.480;20.016;2023-04-28T07:49:28;95336.03;;;10.65;58.36
54465;BME280;40374;49.480;20.016;2023-04-28T07:51:56;95342.16;;;11.01;57.56
54465;BME280;40374;49.480;20.016;2023-04-28T07:54:24;95341.56;;;11.14;56.01
54465;BME280;40374;49.480;20.016;2023-04-28T07:56:51;95333.94;;;11.42;54.94
54465;BME280;40374;49.480;20.016;2023-04-28T07:59:19;95338.94;;;11.69;54.93
54465;BME280;40374;49.480;20.016;2023-04-28T08:01:46;95314.59;;;11.90;52.37
54465;BME280;40374;49.480;20.016;2023-04-28T08:04:14;95337.91;;;12.15;49.77
54465;BME280;40374;49.480;20.016;2023-04-28T08:06:42;95324.34;;;12.25;50.03
54465;BME280;40374;49.480;20.016;2023-04-28T08:09:09;95325.06;;;12.36;49.47
54465;BME280;40374;49.480;20.016;2023-04-28T08:11:37;95320.19;;;12.38;48.92
54465;BME280;40374;49.480;20.016;2023-04-28T08:14:04;95307.88;;;12.27;47.37
54465;BME280;40374;49.480;20.016;2023-04-28T08:16:32;95320.72;;;12.40;47.99
54465;BME280;40374;49.480;20.016;2023-04-28T08:19:02;95309.59;;;12.47;49.41
54465;BME280;40374;49.480;20.016;2023-04-28T08:21:31;95308.19;;;12.84;50.27
54465;BME280;40374;49.480;20.016;2023-04-28T08:23:59;95303.75;;;12.98;47.30
54465;BME280;40374;49.480;20.016;2023-04-28T08:26:27;95309.19;;;13.17;48.60
54465;BME280;40374;49.480;20.016;2023-04-28T08:28:54;95300.00;;;13.18;45.25
54465;BME280;40374;49.480;20.016;2023-04-28T08:31:21;95301.03;;;13.22;47.33
54465;BME280;40374;49.480;20.016;2023-04-28T08:33:50;95297.38;;;13.37;50.68
54465;BME280;40374;49.480;20.016;2023-04-28T08:36:17;95296.84;;;13.35;46.30
54465;BME280;40374;49.480;20.016;2023-04-28T08:38:45;95306.66;;;13.26;46.36
54465;BME280;40374;49.480;20.016;2023-04-28T08:41:16;95299.72;;;13.19;47.91
54465;BME280;40374;49.480;20.016;2023-04-28T08:43:45;95289.94;;;13.48;48.00
54465;BME280;40374;49.480;20.016;2023-04-28T08:46:13;95292.06;;;13.51;43.53
54465;BME280;40374;49.480;20.016;2023-04-28T08:48:43;95298.06;;;13.67;46.12
54465;BME280;40374;49.480;20.016;2023-04-28T08:51:37;95303.97;;;13.50;44.94
54465;BME280;40374;49.480;20.016;2023-04-28T08:54:09;95291.44;;;13.35;43.33
54465;BME280;40374;49.480;20.016;2023-04-28T08:56:52;95300.47;;;13.25;44.18
54465;BME280;40374;49.480;20.016;2023-04-28T08:59:19;95290.81;;;13.19;45.77
54465;BME280;40374;49.480;20.016;2023-04-28T09:01:48;95290.66;;;13.34;45.64
54465;BME280;40374;49.480;20.016;2023-04-28T09:04:17;95286.91;;;13.73;45.04
54465;BME280;40374;49.480;20.016;2023-04-28T09:06:45;95284.72;;;13.75;43.73
54465;BME280;40374;49.480;20.016;2023-04-28T09:09:27;95276.38;;;13.91;44.33
54465;BME280;40374;49.480;20.016;2023-04-28T09:12:02;95280.75;;;14.06;43.21
54465;BME280;40374;49.480;20.016;2023-04-28T09:14:33;95270.94;;;14.29;43.91
54465;BME280;40374;49.480;20.016;2023-04-28T09:17:01;95269.59;;;14.45;43.47
54465;BME280;40374;49.480;20.016;2023-04-28T09:19:34;95262.34;;;14.73;44.27
54465;BME280;40374;49.480;20.016;2023-04-28T09:22:02;95257.25;;;15.41;44.85
54465;BME280;40374;49.480;20.016;2023-04-28T09:24:51;95257.25;;;16.28;39.85
54465;BME280;40374;49.480;20.016;2023-04-28T09:27:26;95250.69;;;15.83;37.11
54465;BME280;40374;49.480;20.016;2023-04-28T09:29:54;95250.94;;;15.96;37.26
54465;BME280;40374;49.480;20.016;2023-04-28T09:32:22;95251.34;;;16.26;36.05
54465;BME280;40374;49.480;20.016;2023-04-28T09:34:53;95241.97;;;16.63;35.95
54465;BME280;40374;49.480;20.016;2023-04-28T09:37:25;95235.59;;;16.90;39.70
54465;BME280;40374;49.480;20.016;2023-04-28T09:39:53;95237.13;;;17.14;39.39
54465;BME280;40374;49.480;20.016;2023-04-28T09:42:31;95219.84;;;17.84;37.97
54465;BME280;40374;49.480;20.016;2023-04-28T09:45:07;95219.19;;;18.40;39.05
54465;BME280;40374;49.480;20.016;2023-04-28T09:47:42;95204.66;;;18.83;36.91
54465;BME280;40374;49.480;20.016;2023-04-28T09:50:12;95211.44;;;19.45;36.69
54465;BME280;40374;49.480;20.016;2023-04-28T09:52:45;95201.34;;;19.66;33.38
54465;BME280;40374;49.480;20.016;2023-04-28T09:55:23;95201.56;;;19.61;32.14
54465;BME280;40374;49.480;20.016;2023-04-28T09:57:53;95190.72;;;19.44;32.21
54465;BME280;40374;49.480;20.016;2023-04-28T10:00:21;95187.06;;;19.10;33.74
54465;BME280;40374;49.480;20.016;2023-04-28T10:02:49;95190.72;;;19.44;32.46
54465;BME280;40374;49.480;20.016;2023-04-28T10:05:20;95183.84;;;19.67;34.38
54465;BME280;40374;49.480;20.016;2023-04-28T10:07:48;95189.19;;;20.06;34.63
54465;BME280;40374;49.480;20.016;2023-04-28T10:10:16;95175.28;;;20.65;36.51
54465;BME280;40374;49.480;20.016;2023-04-28T10:12:44;95168.97;;;21.11;35.40
54465;BME280;40374;49.480;20.016;2023-04-28T10:15:12;95167.56;;;21.54;32.52
54465;BME280;40374;49.480;20.016;2023-04-28T10:17:39;95161.03;;;21.71;31.38
54465;BME280;40374;49.480;20.016;2023-04-28T10:20:07;95156.28;;;21.96;33.48
54465;BME280;40374;49.480;20.016;2023-04-28T10:25:47;95146.75;;;23.09;32.29
54465;BME280;40374;49.480;20.016;2023-04-28T10:28:16;95148.47;;;23.49;33.21
54465;BME280;40374;49.480;20.016;2023-04-28T10:31:13;95147.63;;;24.20;32.96
54465;BME280;40374;49.480;20.016;2023-04-28T10:33:41;95145.69;;;24.63;31.61
54465;BME280;40374;49.480;20.016;2023-04-28T10:36:09;95136.84;;;24.73;30.76
54465;BME280;40374;49.480;20.016;2023-04-28T10:39:18;95131.47;;;25.03;30.24
54465;BME280;40374;49.480;20.016;2023-04-28T10:41:46;95115.47;;;25.12;28.16
54465;BME280;40374;49.480;20.016;2023-04-28T10:47:06;95104.03;;;23.79;27.76
54465;BME280;40374;49.480;20.016;2023-04-28T10:55:27;95106.31;;;24.16;31.92
54465;BME280;40374;49.480;20.016;2023-04-28T11:00:43;95088.41;;;25.71;28.06
54465;BME280;40374;49.480;20.016;2023-04-28T11:06:47;95084.63;;;23.91;27.79
54465;BME280;40374;49.480;20.016;2023-04-28T11:12:05;95079.69;;;24.20;27.50
54465;BME280;40374;49.480;20.016;2023-04-28T11:14:34;95093.69;;;24.11;26.96
54465;BME280;40374;49.480;20.016;2023-04-28T11:17:06;95090.34;;;24.22;26.98
54465;BME280;40374;49.480;20.016;2023-04-28T11:19:42;95086.91;;;24.71;27.35
54465;BME280;40374;49.480;20.016;2023-04-28T11:22:16;95076.19;;;25.69;29.38
54465;BME280;40374;49.480;20.016;2023-04-28T11:24:57;95075.25;;;26.59;26.61
54465;BME280;40374;49.480;20.016;2023-04-28T11:27:26;95057.34;;;26.87;27.84
54465;BME280;40374;49.480;20.016;2023-04-28T11:29:54;95070.91;;;27.10;25.72
54465;BME280;40374;49.480;20.016;2023-04-28T11:32:30;95072.13;;;26.27;23.73
54465;BME280;40374;49.480;20.016;2023-04-28T11:34:58;95070.56;;;25.62;25.33
54465;BME280;40374;49.480;20.016;2023-04-28T11:37:26;95077.72;;;25.66;26.02
54465;BME280;40374;49.480;20.016;2023-04-28T11:39:53;95070.50;;;26.22;28.33
54465;BME280;40374;49.480;20.016;2023-04-28T11:42:21;95059.84;;;26.58;27.63
54465;BME280;40374;49.480;20.016;2023-04-28T11:44:49;95059.31;;;27.42;27.03
54465;BME280;40374;49.480;20.016;2023-04-28T11:49:55;95048.66;;;28.74;25.20
54465;BME280;40374;49.480;20.016;2023-04-28T11:52:24;95053.31;;;28.13;22.94
54465;BME280;40374;49.480;20.016;2023-04-28T11:54:57;95051.34;;;28.17;24.29
54465;BME280;40374;49.480;20.016;2023-04-28T11:57:29;95034.03;;;29.06;24.09
54465;BME280;40374;49.480;20.016;2023-04-28T12:00:15;95030.63;;;29.98;22.29
54465;BME280;40374;49.480;20.016;2023-04-28T12:02:48;95035.63;;;28.71;22.68
54465;BME280;40374;49.480;20.016;2023-04-28T12:05:16;95032.94;;;27.59;22.64
54465;BME280;40374;49.480;20.016;2023-04-28T12:07:44;95027.34;;;27.44;24.49
54465;BME280;40374;49.480;20.016;2023-04-28T12:10:12;95026.84;;;28.19;24.64
54465;BME280;40374;49.480;20.016;2023-04-28T12:12:42;95021.41;;;28.69;22.39
54465;BME280;40374;49.480;20.016;2023-04-28T12:15:19;95013.84;;;28.34;22.11
54465;BME280;40374;49.480;20.016;2023-04-28T12:18:10;95017.19;;;27.66;23.49
54465;BME280;40374;49.480;20.016;2023-04-28T12:20:42;95011.50;;;27.30;22.57
54465;BME280;40374;49.480;20.016;2023-04-28T12:23:11;95017.50;;;26.40;25.17
54465;BME280;40374;49.480;20.016;2023-04-28T12:25:43;95011.91;;;27.36;26.10
54465;BME280;40374;49.480;20.016;2023-04-28T12:28:11;95003.94;;;28.26;24.86
54465;BME280;40374;49.480;20.016;2023-04-28T12:30:39;94998.47;;;28.94;25.71
54465;BME280;40374;49.480;20.016;2023-04-28T12:33:25;95002.97;;;29.90;22.94
54465;BME280;40374;49.480;20.016;2023-04-28T12:35:55;94985.22;;;30.40;21.88
54465;BME280;40374;49.480;20.016;2023-04-28T12:38:25;94980.22;;;30.69;22.78
54465;BME280;40374;49.480;20.016;2023-04-28T12:40:55;94989.31;;;30.73;23.58
54465;BME280;40374;49.480;20.016;2023-04-28T12:43:23;94975.72;;;30.38;20.25
54465;BME280;40374;49.480;20.016;2023-04-28T12:45:51;94982.13;;;29.39;21.70
54465;BME280;40374;49.480;20.016;2023-04-28T12:48:20;94981.84;;;28.80;21.52
54465;BME280;40374;49.480;20.016;2023-04-28T12:50:50;94982.66;;;28.51;21.69
54465;BME280;40374;49.480;20.016;2023-04-28T12:53:18;94978.22;;;27.97;21.79
54465;BME280;40374;49.480;20.016;2023-04-28T12:55:45;94976.16;;;26.40;23.83
54465;BME280;40374;49.480;20.016;2023-04-28T12:58:13;94973.41;;;25.99;22.77
54465;BME280;40374;49.480;20.016;2023-04-28T13:00:41;94979.34;;;25.33;23.82
54465;BME280;40374;49.480;20.016;2023-04-28T13:03:09;94974.28;;;26.06;23.23
54465;BME280;40374;49.480;20.016;2023-04-28T13:05:36;94964.31;;;26.91;22.94
54465;BME280;40374;49.480;20.016;2023-04-28T13:08:04;94959.94;;;27.60;22.71
54465;BME280;40374;49.480;20.016;2023-04-28T13:10:31;94939.94;;;28.34;22.92
54465;BME280;40374;49.480;20.016;2023-04-28T13:12:59;94940.66;;;29.21;23.88
54465;BME280;40374;49.480;20.016;2023-04-28T13:15:26;94941.28;;;30.28;22.92
54465;BME280;40374;49.480;20.016;2023-04-28T13:17:55;94934.66;;;31.08;21.83
54465;BME280;40374;49.480;20.016;2023-04-28T13:20:24;94923.56;;;31.39;21.79
54465;BME280;40374;49.480;20.016;2023-04-28T13:22:51;94927.19;;;30.60;22.51